createdAt,value
2018-01-16T00:05:23.063Z,983.7
2018-01-16T00:15:23.149Z,983.66
2018-01-16T00:25:23.094Z,983.79
2018-01-16T00:35:23.166Z,983.9
2018-01-16T00:45:23.112Z,983.91
2018-01-16T00:55:23.172Z,984.08
2018-01-16T01:05:23.135Z,984.15
2018-01-16T01:15:23.231Z,984.37
2018-01-16T01:25:23.174Z,984.38
2018-01-16T01:35:23.125Z,984.34
2018-01-16T01:45:23.218Z,984.39
2018-01-16T01:55:23.169Z,984.19
2018-01-16T02:05:23.202Z,984.36
2018-01-16T02:15:23.171Z,984.27
2018-01-16T02:25:23.230Z,984.08
2018-01-16T02:35:23.220Z,983.91
2018-01-16T02:45:23.260Z,983.83
2018-01-16T02:55:23.250Z,983.65
2018-01-16T03:05:23.305Z,983.42
2018-01-16T03:15:23.236Z,983.5
2018-01-16T03:25:23.315Z,983.25
2018-01-16T03:35:23.263Z,983.36
2018-01-16T03:45:23.237Z,983.18
2018-01-16T03:55:23.290Z,983
2018-01-16T04:05:23.250Z,982.77
2018-01-16T04:15:23.310Z,982.7
2018-01-16T04:25:23.275Z,982.53
2018-01-16T04:35:23.337Z,982.5
2018-01-16T04:45:23.324Z,982.51
2018-01-16T04:55:23.372Z,982.34
2018-01-16T05:05:23.329Z,982.26
2018-01-16T05:15:23.384Z,982.09
2018-01-16T05:25:23.335Z,982.13
2018-01-16T05:35:23.408Z,982.17
2018-01-16T05:45:23.373Z,982.12
2018-01-16T05:55:23.329Z,982.11
2018-01-16T06:05:23.415Z,982.12
2018-01-16T06:15:23.367Z,982.24
2018-01-16T06:25:23.408Z,982.14
2018-01-16T06:35:23.410Z,982.28
2018-01-16T06:45:23.433Z,982.21
2018-01-16T06:55:23.406Z,982.21
2018-01-16T07:05:23.475Z,982.24
2018-01-16T07:15:23.435Z,982.27
2018-01-16T07:25:23.486Z,982.2
2018-01-16T07:35:23.458Z,982.26
2018-01-16T07:45:23.516Z,982.3
2018-01-16T07:55:23.495Z,982.31
2018-01-16T08:05:23.456Z,982.31
2018-01-16T08:15:23.497Z,982.38
2018-01-16T08:25:23.454Z,982.33
2018-01-16T08:35:23.535Z,982.72
2018-01-16T08:45:23.506Z,982.59
2018-01-16T08:55:23.544Z,982.3
2018-01-16T09:05:23.531Z,982.33
2018-01-16T09:15:23.649Z,982.35
2018-01-16T09:25:23.547Z,982.5
2018-01-16T09:35:23.596Z,982.59
2018-01-16T09:45:23.541Z,982.61
2018-01-16T09:55:23.625Z,983.02
2018-01-16T10:05:23.582Z,982.99
2018-01-16T10:15:23.536Z,982.74
2018-01-16T10:25:23.602Z,982.88
2018-01-16T10:35:23.578Z,982.99
2018-01-16T10:45:23.631Z,983.17
2018-01-16T10:55:23.596Z,983.32
2018-01-16T11:05:23.558Z,983.43
2018-01-16T11:15:23.610Z,983.72
2018-01-16T11:25:23.583Z,983.8
2018-01-16T11:35:23.652Z,983.71
2018-01-16T11:45:23.718Z,983.81
2018-01-16T11:55:23.663Z,983.96
2018-01-16T12:05:23.735Z,983.89
2018-01-16T12:15:23.695Z,983.91
2018-01-16T12:25:23.670Z,983.93
2018-01-16T12:35:23.773Z,983.81
2018-01-16T12:45:23.751Z,983.84
2018-01-16T12:55:24.340Z,983.73
2018-01-16T13:05:23.725Z,983.81
2018-01-16T13:15:23.679Z,983.77
2018-01-16T13:25:23.751Z,983.87
2018-01-16T13:35:23.708Z,983.92
2018-01-16T13:45:23.769Z,984.37
2018-01-16T13:55:23.714Z,984.38
2018-01-16T14:05:23.806Z,984.42
2018-01-16T14:15:23.759Z,984.4
2018-01-16T14:25:23.815Z,984.38
2018-01-16T14:35:23.776Z,984.52
2018-01-16T14:45:23.858Z,984.49
2018-01-16T14:55:23.758Z,984.69
2018-01-16T15:05:23.799Z,984.79
2018-01-16T15:15:23.846Z,984.88
2018-01-16T15:25:23.816Z,984.95
2018-01-16T15:35:23.876Z,985.14
2018-01-16T15:45:23.832Z,985.16
2018-01-16T15:55:23.797Z,985.34
2018-01-16T16:05:23.853Z,985.43
2018-01-16T16:15:23.904Z,985.42
2018-01-16T16:25:26.037Z,985.58
2018-01-16T16:35:23.930Z,985.52
2018-01-16T16:45:23.892Z,985.4
2018-01-16T16:55:23.850Z,985.4
2018-01-16T17:05:23.939Z,985.27
2018-01-16T17:15:23.869Z,985.31
2018-01-16T17:25:23.951Z,985.39
2018-01-16T17:35:23.948Z,985.29
2018-01-16T17:45:23.982Z,985.23
2018-01-16T17:55:23.953Z,985.22
2018-01-16T18:05:24.006Z,985.16
2018-01-16T18:15:23.949Z,985.2
2018-01-16T18:25:24.028Z,985.3
2018-01-16T18:35:23.939Z,985.2
2018-01-16T18:45:35.774Z,985.2
2018-01-16T18:55:24.009Z,985.16
2018-01-16T19:05:23.955Z,985.23
2018-01-16T19:15:24.068Z,985.1
2018-01-16T19:25:23.981Z,985.18
2018-01-16T19:35:24.080Z,985.3
2018-01-16T19:45:36.010Z,985.18
2018-01-16T19:55:37.215Z,985.17
2018-01-16T20:05:36.318Z,985.14
2018-01-16T20:15:34.530Z,985.21
2018-01-16T20:25:36.219Z,985.09
2018-01-16T20:35:24.085Z,985.16
2018-01-16T20:45:24.029Z,985.17
2018-01-16T20:55:24.110Z,985.08
2018-01-16T21:05:24.146Z,985.08
2018-01-16T21:15:24.099Z,984.97
2018-01-16T21:25:24.073Z,984.74
2018-01-16T21:35:24.135Z,984.69
2018-01-16T21:45:24.090Z,984.62
2018-01-16T21:55:24.121Z,984.72
2018-01-16T22:05:24.160Z,984.71
2018-01-16T22:15:24.410Z,984.71
2018-01-16T22:25:24.202Z,984.76
2018-01-16T22:35:24.153Z,984.81
2018-01-16T22:45:24.211Z,984.79
2018-01-16T22:55:24.163Z,984.86
2018-01-16T23:05:24.247Z,984.79
2018-01-16T23:15:24.162Z,984.5
2018-01-16T23:25:24.206Z,984.37
2018-01-16T23:35:24.231Z,984.2
2018-01-16T23:45:24.204Z,984.12
2018-01-16T23:55:24.263Z,983.95
